sensor_id;sensor_type;location;lat;lon;timestamp;P1;durP1;ratioP1;P2;durP2;ratioP2
80313;SDS011;69628;47.516;18.828;2024-02-28T00:00:29;10.10;;;5.20;;
80313;SDS011;69628;47.516;18.828;2024-02-28T00:01:30;11.40;;;4.53;;
80313;SDS011;69628;47.516;18.828;2024-02-28T00:02:30;9.57;;;4.65;;
80313;SDS011;69628;47.516;18.828;2024-02-28T00:03:30;8.85;;;4.22;;
80313;SDS011;69628;47.516;18.828;2024-02-28T00:04:31;10.60;;;5.25;;
80313;SDS011;69628;47.516;18.828;2024-02-28T00:05:32;8.95;;;4.18;;
80313;SDS011;69628;47.516;18.828;2024-02-28T00:06:32;8.35;;;4.60;;
80313;SDS011;69628;47.516;18.828;2024-02-28T00:07:33;10.63;;;5.05;;
80313;SDS011;69628;47.516;18.828;2024-02-28T00:08:35;9.07;;;4.53;;
80313;SDS011;69628;47.516;18.828;2024-02-28T00:09:35;8.93;;;4.30;;
80313;SDS011;69628;47.516;18.828;2024-02-28T00:10:36;9.23;;;4.85;;
80313;SDS011;69628;47.516;18.828;2024-02-28T00:11:40;20.60;;;5.18;;
80313;SDS011;69628;47.516;18.828;2024-02-28T00:12:42;7.88;;;4.55;;
80313;SDS011;69628;47.516;18.828;2024-02-28T00:13:42;12.57;;;5.32;;
80313;SDS011;69628;47.516;18.828;2024-02-28T00:14:43;12.63;;;5.00;;
80313;SDS011;69628;47.516;18.828;2024-02-28T00:15:43;7.70;;;4.60;;
80313;SDS011;69628;47.516;18.828;2024-02-28T00:16:44;8.07;;;4.43;;
80313;SDS011;69628;47.516;18.828;2024-02-28T00:17:45;16.73;;;5.28;;
80313;SDS011;69628;47.516;18.828;2024-02-28T00:18:46;10.75;;;4.97;;
80313;SDS011;69628;47.516;18.828;2024-02-28T00:19:46;9.00;;;4.78;;
80313;SDS011;69628;47.516;18.828;2024-02-28T00:20:46;6.63;;;4.32;;
80313;SDS011;69628;47.516;18.828;2024-02-28T00:21:47;10.15;;;4.93;;
80313;SDS011;69628;47.516;18.828;2024-02-28T00:22:48;10.27;;;5.55;;
80313;SDS011;69628;47.516;18.828;2024-02-28T00:23:48;9.50;;;5.28;;
80313;SDS011;69628;47.516;18.828;2024-02-28T00:24:49;11.30;;;5.15;;
80313;SDS011;69628;47.516;18.828;2024-02-28T00:25:49;8.02;;;4.55;;
80313;SDS011;69628;47.516;18.828;2024-02-28T00:26:50;15.88;;;5.63;;
80313;SDS011;69628;47.516;18.828;2024-02-28T00:27:50;9.45;;;4.85;;
80313;SDS011;69628;47.516;18.828;2024-02-28T00:28:50;10.20;;;5.18;;
80313;SDS011;69628;47.516;18.828;2024-02-28T00:29:51;12.98;;;5.45;;
80313;SDS011;69628;47.516;18.828;2024-02-28T00:30:51;16.95;;;6.25;;
80313;SDS011;69628;47.516;18.828;2024-02-28T00:31:52;11.68;;;5.03;;
80313;SDS011;69628;47.516;18.828;2024-02-28T00:32:52;18.85;;;6.00;;
80313;SDS011;69628;47.516;18.828;2024-02-28T00:33:53;12.65;;;4.88;;
80313;SDS011;69628;47.516;18.828;2024-02-28T00:34:53;15.10;;;5.05;;
80313;SDS011;69628;47.516;18.828;2024-02-28T00:35:53;16.40;;;5.18;;
80313;SDS011;69628;47.516;18.828;2024-02-28T00:36:54;11.27;;;5.38;;
80313;SDS011;69628;47.516;18.828;2024-02-28T00:37:54;12.60;;;5.20;;
80313;SDS011;69628;47.516;18.828;2024-02-28T00:38:54;9.75;;;5.10;;
80313;SDS011;69628;47.516;18.828;2024-02-28T00:39:55;23.33;;;6.22;;
80313;SDS011;69628;47.516;18.828;2024-02-28T00:40:55;13.63;;;5.13;;
80313;SDS011;69628;47.516;18.828;2024-02-28T00:41:55;11.98;;;5.35;;
80313;SDS011;69628;47.516;18.828;2024-02-28T00:42:56;8.77;;;4.82;;
80313;SDS011;69628;47.516;18.828;2024-02-28T00:43:57;32.25;;;5.72;;
80313;SDS011;69628;47.516;18.828;2024-02-28T00:44:58;12.85;;;5.45;;
80313;SDS011;69628;47.516;18.828;2024-02-28T00:45:58;13.98;;;6.53;;
80313;SDS011;69628;47.516;18.828;2024-02-28T00:46:58;10.13;;;4.90;;
80313;SDS011;69628;47.516;18.828;2024-02-28T00:47:59;20.63;;;4.95;;
80313;SDS011;69628;47.516;18.828;2024-02-28T00:48:59;13.23;;;5.18;;
80313;SDS011;69628;47.516;18.828;2024-02-28T00:49:59;9.88;;;5.07;;
80313;SDS011;69628;47.516;18.828;2024-02-28T00:51:03;11.43;;;5.15;;
80313;SDS011;69628;47.516;18.828;2024-02-28T00:52:03;12.65;;;4.50;;
80313;SDS011;69628;47.516;18.828;2024-02-28T00:53:04;14.75;;;6.55;;
80313;SDS011;69628;47.516;18.828;2024-02-28T00:54:04;11.90;;;5.18;;
80313;SDS011;69628;47.516;18.828;2024-02-28T00:55:04;8.07;;;4.70;;
80313;SDS011;69628;47.516;18.828;2024-02-28T00:56:05;10.88;;;4.97;;
80313;SDS011;69628;47.516;18.828;2024-02-28T00:57:06;20.77;;;6.07;;
80313;SDS011;69628;47.516;18.828;2024-02-28T00:58:06;20.98;;;5.60;;
80313;SDS011;69628;47.516;18.828;2024-02-28T00:59:06;9.40;;;5.78;;
80313;SDS011;69628;47.516;18.828;2024-02-28T01:00:10;11.85;;;5.55;;
80313;SDS011;69628;47.516;18.828;2024-02-28T01:01:11;16.98;;;4.80;;
80313;SDS011;69628;47.516;18.828;2024-02-28T01:02:12;16.55;;;5.80;;
80313;SDS011;69628;47.516;18.828;2024-02-28T01:03:12;13.93;;;5.43;;
80313;SDS011;69628;47.516;18.828;2024-02-28T01:04:14;11.50;;;4.25;;
80313;SDS011;69628;47.516;18.828;2024-02-28T01:05:15;10.65;;;4.97;;
80313;SDS011;69628;47.516;18.828;2024-02-28T01:06:16;12.63;;;5.60;;
80313;SDS011;69628;47.516;18.828;2024-02-28T01:07:16;14.50;;;5.93;;
80313;SDS011;69628;47.516;18.828;2024-02-28T01:08:17;10.50;;;5.15;;
80313;SDS011;69628;47.516;18.828;2024-02-28T01:09:17;10.07;;;5.03;;
80313;SDS011;69628;47.516;18.828;2024-02-28T01:10:19;13.43;;;5.60;;
80313;SDS011;69628;47.516;18.828;2024-02-28T01:11:19;10.10;;;5.80;;
80313;SDS011;69628;47.516;18.828;2024-02-28T01:12:19;14.30;;;5.28;;
80313;SDS011;69628;47.516;18.828;2024-02-28T01:13:20;15.27;;;5.47;;
80313;SDS011;69628;47.516;18.828;2024-02-28T01:14:21;11.60;;;5.40;;
80313;SDS011;69628;47.516;18.828;2024-02-28T01:15:21;12.10;;;5.10;;
80313;SDS011;69628;47.516;18.828;2024-02-28T01:16:21;9.15;;;4.65;;
80313;SDS011;69628;47.516;18.828;2024-02-28T01:17:22;10.90;;;5.63;;
80313;SDS011;69628;47.516;18.828;2024-02-28T01:18:22;10.00;;;5.13;;
80313;SDS011;69628;47.516;18.828;2024-02-28T01:19:22;12.60;;;5.35;;
80313;SDS011;69628;47.516;18.828;2024-02-28T01:20:23;11.02;;;5.55;;
80313;SDS011;69628;47.516;18.828;2024-02-28T01:21:23;12.23;;;5.57;;
80313;SDS011;69628;47.516;18.828;2024-02-28T01:22:24;11.07;;;5.95;;
80313;SDS011;69628;47.516;18.828;2024-02-28T01:23:24;15.27;;;5.65;;
80313;SDS011;69628;47.516;18.828;2024-02-28T01:24:25;9.40;;;5.05;;
80313;SDS011;69628;47.516;18.828;2024-02-28T01:25:25;13.75;;;6.63;;
80313;SDS011;69628;47.516;18.828;2024-02-28T01:26:25;12.10;;;6.25;;
80313;SDS011;69628;47.516;18.828;2024-02-28T01:27:26;9.15;;;5.07;;
80313;SDS011;69628;47.516;18.828;2024-02-28T01:28:26;16.85;;;5.90;;
80313;SDS011;69628;47.516;18.828;2024-02-28T01:29:26;13.25;;;5.55;;
80313;SDS011;69628;47.516;18.828;2024-02-28T01:30:27;10.07;;;5.57;;
80313;SDS011;69628;47.516;18.828;2024-02-28T01:31:27;11.52;;;5.93;;
80313;SDS011;69628;47.516;18.828;2024-02-28T01:32:28;15.40;;;5.80;;
80313;SDS011;69628;47.516;18.828;2024-02-28T01:33:29;16.98;;;6.63;;
80313;SDS011;69628;47.516;18.828;2024-02-28T01:34:29;13.98;;;5.57;;
80313;SDS011;69628;47.516;18.828;2024-02-28T01:35:30;10.85;;;5.22;;
80313;SDS011;69628;47.516;18.828;2024-02-28T01:36:30;8.57;;;4.80;;
80313;SDS011;69628;47.516;18.828;2024-02-28T01:37:30;16.40;;;7.15;;
80313;SDS011;69628;47.516;18.828;2024-02-28T01:38:31;12.63;;;6.63;;
80313;SDS011;69628;47.516;18.828;2024-02-28T01:39:32;15.70;;;6.00;;
80313;SDS011;69628;47.516;18.828;2024-02-28T01:40:32;11.98;;;5.97;;
80313;SDS011;69628;47.516;18.828;2024-02-28T01:41:32;13.65;;;6.10;;
80313;SDS011;69628;47.516;18.828;2024-02-28T01:42:33;12.27;;;5.50;;
80313;SDS011;69628;47.516;18.828;2024-02-28T01:43:33;15.85;;;7.15;;
80313;SDS011;69628;47.516;18.828;2024-02-28T01:44:34;9.75;;;5.38;;
80313;SDS011;69628;47.516;18.828;2024-02-28T01:48:46;14.38;;;5.07;;
80313;SDS011;69628;47.516;18.828;2024-02-28T01:49:46;11.85;;;5.68;;
80313;SDS011;69628;47.516;18.828;2024-02-28T01:50:47;10.77;;;5.18;;
80313;SDS011;69628;47.516;18.828;2024-02-28T01:51:47;21.80;;;5.93;;
80313;SDS011;69628;47.516;18.828;2024-02-28T01:52:48;9.43;;;5.57;;
80313;SDS011;69628;47.516;18.828;2024-02-28T01:53:48;11.05;;;5.32;;
80313;SDS011;69628;47.516;18.828;2024-02-28T01:54:50;14.13;;;6.72;;
80313;SDS011;69628;47.516;18.828;2024-02-28T01:55:50;17.58;;;6.80;;
80313;SDS011;69628;47.516;18.828;2024-02-28T01:56:51;11.02;;;6.15;;
80313;SDS011;69628;47.516;18.828;2024-02-28T01:57:52;15.45;;;5.78;;
80313;SDS011;69628;47.516;18.828;2024-02-28T01:58:53;8.75;;;4.70;;
80313;SDS011;69628;47.516;18.828;2024-02-28T01:59:54;11.55;;;5.38;;
80313;SDS011;69628;47.516;18.828;2024-02-28T02:00:58;12.02;;;5.40;;
80313;SDS011;69628;47.516;18.828;2024-02-28T02:01:59;13.73;;;5.45;;
80313;SDS011;69628;47.516;18.828;2024-02-28T02:03:02;11.25;;;5.50;;
80313;SDS011;69628;47.516;18.828;2024-02-28T02:04:03;11.05;;;5.70;;
80313;SDS011;69628;47.516;18.828;2024-02-28T02:05:04;12.50;;;5.72;;
80313;SDS011;69628;47.516;18.828;2024-02-28T02:06:04;24.90;;;6.18;;
80313;SDS011;69628;47.516;18.828;2024-02-28T02:07:05;15.52;;;5.97;;
80313;SDS011;69628;47.516;18.828;2024-02-28T02:08:06;14.07;;;6.15;;
80313;SDS011;69628;47.516;18.828;2024-02-28T02:09:07;13.52;;;6.05;;
80313;SDS011;69628;47.516;18.828;2024-02-28T02:10:07;10.27;;;5.40;;
80313;SDS011;69628;47.516;18.828;2024-02-28T02:11:10;9.82;;;5.75;;
80313;SDS011;69628;47.516;18.828;2024-02-28T02:12:11;12.85;;;5.00;;
80313;SDS011;69628;47.516;18.828;2024-02-28T02:13:11;14.48;;;5.82;;
80313;SDS011;69628;47.516;18.828;2024-02-28T02:14:11;9.45;;;5.38;;
80313;SDS011;69628;47.516;18.828;2024-02-28T02:15:13;14.93;;;6.15;;
80313;SDS011;69628;47.516;18.828;2024-02-28T02:16:13;10.80;;;5.75;;
80313;SDS011;69628;47.516;18.828;2024-02-28T02:17:14;13.57;;;5.57;;
80313;SDS011;69628;47.516;18.828;2024-02-28T02:18:14;11.32;;;6.13;;
80313;SDS011;69628;47.516;18.828;2024-02-28T02:19:15;13.32;;;6.15;;
80313;SDS011;69628;47.516;18.828;2024-02-28T02:20:15;12.10;;;5.65;;
80313;SDS011;69628;47.516;18.828;2024-02-28T02:21:17;12.07;;;6.47;;
80313;SDS011;69628;47.516;18.828;2024-02-28T02:22:18;9.98;;;5.40;;
80313;SDS011;69628;47.516;18.828;2024-02-28T02:23:20;13.20;;;5.65;;
80313;SDS011;69628;47.516;18.828;2024-02-28T02:24:20;14.90;;;6.20;;
80313;SDS011;69628;47.516;18.828;2024-02-28T02:25:21;15.25;;;5.85;;
80313;SDS011;69628;47.516;18.828;2024-02-28T02:26:21;15.25;;;5.57;;
80313;SDS011;69628;47.516;18.828;2024-02-28T02:27:23;15.60;;;5.22;;
80313;SDS011;69628;47.516;18.828;2024-02-28T02:28:24;11.55;;;5.10;;
80313;SDS011;69628;47.516;18.828;2024-02-28T02:29:25;13.23;;;6.03;;
80313;SDS011;69628;47.516;18.828;2024-02-28T02:30:25;18.33;;;5.30;;
80313;SDS011;69628;47.516;18.828;2024-02-28T02:31:26;9.93;;;5.28;;
80313;SDS011;69628;47.516;18.828;2024-02-28T02:32:26;10.23;;;5.32;;
80313;SDS011;69628;47.516;18.828;2024-02-28T02:33:27;9.63;;;5.00;;
80313;SDS011;69628;47.516;18.828;2024-02-28T02:34:27;14.25;;;5.40;;
80313;SDS011;69628;47.516;18.828;2024-02-28T02:35:27;11.73;;;5.32;;
80313;SDS011;69628;47.516;18.828;2024-02-28T02:36:28;10.23;;;5.57;;
80313;SDS011;69628;47.516;18.828;2024-02-28T02:37:28;15.50;;;6.28;;
80313;SDS011;69628;47.516;18.828;2024-02-28T02:38:28;17.30;;;6.75;;
80313;SDS011;69628;47.516;18.828;2024-02-28T02:39:29;13.63;;;5.65;;
80313;SDS011;69628;47.516;18.828;2024-02-28T02:40:29;14.35;;;6.25;;
80313;SDS011;69628;47.516;18.828;2024-02-28T02:41:30;12.93;;;5.35;;
80313;SDS011;69628;47.516;18.828;2024-02-28T02:42:30;19.13;;;6.10;;
80313;SDS011;69628;47.516;18.828;2024-02-28T02:43:30;13.57;;;5.40;;
80313;SDS011;69628;47.516;18.828;2024-02-28T02:44:31;11.70;;;5.35;;
80313;SDS011;69628;47.516;18.828;2024-02-28T02:45:31;12.40;;;6.05;;
80313;SDS011;69628;47.516;18.828;2024-02-28T02:46:31;9.95;;;5.93;;
80313;SDS011;69628;47.516;18.828;2024-02-28T02:47:32;15.23;;;6.57;;
80313;SDS011;69628;47.516;18.828;2024-02-28T02:48:32;13.30;;;4.85;;
80313;SDS011;69628;47.516;18.828;2024-02-28T02:49:33;10.07;;;5.22;;
80313;SDS011;69628;47.516;18.828;2024-02-28T02:50:33;10.48;;;6.15;;
80313;SDS011;69628;47.516;18.828;2024-02-28T02:51:33;11.98;;;5.93;;
80313;SDS011;69628;47.516;18.828;2024-02-28T02:52:34;11.23;;;5.43;;
80313;SDS011;69628;47.516;18.828;2024-02-28T02:53:34;14.52;;;5.82;;
80313;SDS011;69628;47.516;18.828;2024-02-28T02:54:35;14.65;;;6.30;;
80313;SDS011;69628;47.516;18.828;2024-02-28T02:55:36;13.65;;;6.22;;
80313;SDS011;69628;47.516;18.828;2024-02-28T02:56:37;12.82;;;7.13;;
80313;SDS011;69628;47.516;18.828;2024-02-28T02:57:41;15.20;;;5.65;;
80313;SDS011;69628;47.516;18.828;2024-02-28T02:58:42;13.02;;;6.30;;
80313;SDS011;69628;47.516;18.828;2024-02-28T02:59:42;9.85;;;5.72;;
80313;SDS011;69628;47.516;18.828;2024-02-28T03:00:43;11.57;;;5.80;;
80313;SDS011;69628;47.516;18.828;2024-02-28T03:01:43;12.10;;;6.15;;
80313;SDS011;69628;47.516;18.828;2024-02-28T03:02:43;23.77;;;7.55;;
80313;SDS011;69628;47.516;18.828;2024-02-28T03:03:44;17.10;;;6.75;;
80313;SDS011;69628;47.516;18.828;2024-02-28T03:04:44;15.57;;;5.85;;
80313;SDS011;69628;47.516;18.828;2024-02-28T03:05:44;14.25;;;5.75;;
80313;SDS011;69628;47.516;18.828;2024-02-28T03:06:45;15.50;;;6.13;;
80313;SDS011;69628;47.516;18.828;2024-02-28T03:07:45;15.00;;;6.10;;
80313;SDS011;69628;47.516;18.828;2024-02-28T03:08:45;13.68;;;6.78;;
80313;SDS011;69628;47.516;18.828;2024-02-28T03:09:46;16.85;;;6.68;;
80313;SDS011;69628;47.516;18.828;2024-02-28T03:10:46;12.25;;;5.70;;
80313;SDS011;69628;47.516;18.828;2024-02-28T03:11:46;9.80;;;5.10;;
80313;SDS011;69628;47.516;18.828;2024-02-28T03:12:47;10.93;;;6.18;;
80313;SDS011;69628;47.516;18.828;2024-02-28T03:13:47;17.90;;;6.32;;
80313;SDS011;69628;47.516;18.828;2024-02-28T03:14:48;13.23;;;5.35;;
80313;SDS011;69628;47.516;18.828;2024-02-28T03:15:48;11.63;;;6.47;;
80313;SDS011;69628;47.516;18.828;2024-02-28T03:16:49;10.70;;;6.05;;
80313;SDS011;69628;47.516;18.828;2024-02-28T03:17:49;13.10;;;6.03;;
80313;SDS011;69628;47.516;18.828;2024-02-28T03:18:49;13.88;;;6.28;;
80313;SDS011;69628;47.516;18.828;2024-02-28T03:19:50;10.98;;;5.82;;
80313;SDS011;69628;47.516;18.828;2024-02-28T03:20:50;17.27;;;5.88;;
80313;SDS011;69628;47.516;18.828;2024-02-28T03:21:50;12.52;;;6.60;;
80313;SDS011;69628;47.516;18.828;2024-02-28T03:22:51;13.98;;;5.65;;
80313;SDS011;69628;47.516;18.828;2024-02-28T03:23:51;10.98;;;6.35;;
80313;SDS011;69628;47.516;18.828;2024-02-28T03:24:51;11.25;;;5.68;;
80313;SDS011;69628;47.516;18.828;2024-02-28T03:25:52;13.57;;;7.35;;
80313;SDS011;69628;47.516;18.828;2024-02-28T03:26:52;17.00;;;7.20;;
80313;SDS011;69628;47.516;18.828;2024-02-28T03:27:53;17.10;;;7.63;;
80313;SDS011;69628;47.516;18.828;2024-02-28T03:28:55;21.33;;;8.38;;
80313;SDS011;69628;47.516;18.828;2024-02-28T03:29:55;17.27;;;8.20;;
80313;SDS011;69628;47.516;18.828;2024-02-28T03:30:55;20.98;;;8.75;;
80313;SDS011;69628;47.516;18.828;2024-02-28T03:31:56;17.50;;;8.10;;
80313;SDS011;69628;47.516;18.828;2024-02-28T03:32:58;16.33;;;7.95;;
80313;SDS011;69628;47.516;18.828;2024-02-28T03:33:58;14.88;;;6.82;;
80313;SDS011;69628;47.516;18.828;2024-02-28T03:34:59;19.98;;;7.60;;
80313;SDS011;69628;47.516;18.828;2024-02-28T03:36:00;23.58;;;8.13;;
80313;SDS011;69628;47.516;18.828;2024-02-28T03:37:00;15.20;;;7.30;;
80313;SDS011;69628;47.516;18.828;2024-02-28T03:38:00;16.10;;;7.68;;
80313;SDS011;69628;47.516;18.828;2024-02-28T03:39:01;13.93;;;7.70;;
80313;SDS011;69628;47.516;18.828;2024-02-28T03:40:01;12.77;;;6.60;;
80313;SDS011;69628;47.516;18.828;2024-02-28T03:41:02;15.68;;;8.07;;
80313;SDS011;69628;47.516;18.828;2024-02-28T03:42:03;14.90;;;7.15;;
80313;SDS011;69628;47.516;18.828;2024-02-28T03:43:03;17.55;;;7.47;;
80313;SDS011;69628;47.516;18.828;2024-02-28T03:44:04;12.60;;;6.70;;
80313;SDS011;69628;47.516;18.828;2024-02-28T03:45:05;14.35;;;6.43;;
80313;SDS011;69628;47.516;18.828;2024-02-28T03:46:05;15.07;;;6.95;;
80313;SDS011;69628;47.516;18.828;2024-02-28T03:47:05;12.45;;;5.97;;
80313;SDS011;69628;47.516;18.828;2024-02-28T03:48:06;14.13;;;6.38;;
80313;SDS011;69628;47.516;18.828;2024-02-28T03:49:06;16.63;;;7.30;;
80313;SDS011;69628;47.516;18.828;2024-02-28T03:50:07;15.82;;;7.90;;
80313;SDS011;69628;47.516;18.828;2024-02-28T03:51:07;19.65;;;7.18;;
80313;SDS011;69628;47.516;18.828;2024-02-28T03:52:08;12.63;;;6.63;;
80313;SDS011;69628;47.516;18.828;2024-02-28T03:53:08;19.55;;;7.20;;
80313;SDS011;69628;47.516;18.828;2024-02-28T03:54:09;13.93;;;6.90;;
80313;SDS011;69628;47.516;18.828;2024-02-28T03:55:09;12.07;;;6.03;;
80313;SDS011;69628;47.516;18.828;2024-02-28T03:56:10;12.57;;;6.32;;
80313;SDS011;69628;47.516;18.828;2024-02-28T03:57:11;14.07;;;6.95;;
80313;SDS011;69628;47.516;18.828;2024-02-28T03:58:11;11.10;;;6.45;;
80313;SDS011;69628;47.516;18.828;2024-02-28T03:59:12;15.77;;;6.55;;
80313;SDS011;69628;47.516;18.828;2024-02-28T04:00:13;14.95;;;6.22;;
80313;SDS011;69628;47.516;18.828;2024-02-28T04:01:14;16.73;;;6.85;;
80313;SDS011;69628;47.516;18.828;2024-02-28T04:02:14;17.20;;;6.85;;
80313;SDS011;69628;47.516;18.828;2024-02-28T04:03:14;14.88;;;6.50;;
80313;SDS011;69628;47.516;18.828;2024-02-28T04:04:15;12.48;;;6.10;;
80313;SDS011;69628;47.516;18.828;2024-02-28T04:05:15;15.55;;;7.30;;
80313;SDS011;69628;47.516;18.828;2024-02-28T04:06:17;18.65;;;6.72;;
80313;SDS011;69628;47.516;18.828;2024-02-28T04:07:17;18.60;;;7.43;;
80313;SDS011;69628;47.516;18.828;2024-02-28T04:08:18;15.32;;;6.50;;
80313;SDS011;69628;47.516;18.828;2024-02-28T04:09:18;13.52;;;6.38;;
80313;SDS011;69628;47.516;18.828;2024-02-28T04:10:20;10.73;;;6.50;;
80313;SDS011;69628;47.516;18.828;2024-02-28T04:11:20;13.32;;;6.72;;
80313;SDS011;69628;47.516;18.828;2024-02-28T04:12:21;17.02;;;7.13;;
80313;SDS011;69628;47.516;18.828;2024-02-28T04:13:21;12.00;;;6.30;;
80313;SDS011;69628;47.516;18.828;2024-02-28T04:14:22;33.10;;;7.03;;
80313;SDS011;69628;47.516;18.828;2024-02-28T04:15:22;15.75;;;6.45;;
80313;SDS011;69628;47.516;18.828;2024-02-28T04:16:25;17.48;;;8.02;;
80313;SDS011;69628;47.516;18.828;2024-02-28T04:17:26;18.60;;;7.32;;
80313;SDS011;69628;47.516;18.828;2024-02-28T04:18:26;9.13;;;5.57;;
80313;SDS011;69628;47.516;18.828;2024-02-28T04:19:26;15.02;;;6.80;;
80313;SDS011;69628;47.516;18.828;2024-02-28T04:20:27;13.75;;;6.57;;
80313;SDS011;69628;47.516;18.828;2024-02-28T04:21:27;14.25;;;7.07;;
80313;SDS011;69628;47.516;18.828;2024-02-28T04:22:27;14.60;;;6.05;;
80313;SDS011;69628;47.516;18.828;2024-02-28T04:23:28;17.95;;;6.90;;
80313;SDS011;69628;47.516;18.828;2024-02-28T04:24:28;12.50;;;6.65;;
80313;SDS011;69628;47.516;18.828;2024-02-28T04:25:29;16.48;;;6.68;;
80313;SDS011;69628;47.516;18.828;2024-02-28T04:26:29;11.25;;;5.72;;
80313;SDS011;69628;47.516;18.828;2024-02-28T04:27:29;13.70;;;6.53;;
80313;SDS011;69628;47.516;18.828;2024-02-28T04:28:30;15.30;;;6.70;;
80313;SDS011;69628;47.516;18.828;2024-02-28T04:29:30;13.63;;;6.93;;
80313;SDS011;69628;47.516;18.828;2024-02-28T04:30:30;19.25;;;7.43;;
80313;SDS011;69628;47.516;18.828;2024-02-28T04:31:31;11.60;;;6.90;;
80313;SDS011;69628;47.516;18.828;2024-02-28T04:32:32;11.90;;;5.97;;
80313;SDS011;69628;47.516;18.828;2024-02-28T04:33:32;13.30;;;5.95;;
80313;SDS011;69628;47.516;18.828;2024-02-28T04:34:33;19.45;;;6.93;;
80313;SDS011;69628;47.516;18.828;2024-02-28T04:35:33;14.75;;;6.68;;
80313;SDS011;69628;47.516;18.828;2024-02-28T04:36:33;13.00;;;6.82;;
80313;SDS011;69628;47.516;18.828;2024-02-28T04:37:34;13.07;;;5.97;;
80313;SDS011;69628;47.516;18.828;2024-02-28T04:38:36;17.92;;;7.70;;
80313;SDS011;69628;47.516;18.828;2024-02-28T04:39:36;19.40;;;6.82;;
80313;SDS011;69628;47.516;18.828;2024-02-28T04:40:36;12.50;;;6.07;;
80313;SDS011;69628;47.516;18.828;2024-02-28T04:41:37;21.13;;;7.22;;
80313;SDS011;69628;47.516;18.828;2024-02-28T04:42:37;10.52;;;5.80;;
80313;SDS011;69628;47.516;18.828;2024-02-28T04:43:38;17.23;;;7.63;;
80313;SDS011;69628;47.516;18.828;2024-02-28T04:44:38;19.65;;;8.18;;
80313;SDS011;69628;47.516;18.828;2024-02-28T04:45:38;14.23;;;5.85;;
80313;SDS011;69628;47.516;18.828;2024-02-28T04:46:39;15.70;;;6.53;;
80313;SDS011;69628;47.516;18.828;2024-02-28T04:47:39;13.57;;;7.22;;
80313;SDS011;69628;47.516;18.828;2024-02-28T04:48:40;13.40;;;6.10;;
80313;SDS011;69628;47.516;18.828;2024-02-28T04:49:40;16.02;;;7.53;;
80313;SDS011;69628;47.516;18.828;2024-02-28T04:50:40;14.88;;;7.32;;
80313;SDS011;69628;47.516;18.828;2024-02-28T04:51:41;22.30;;;6.57;;
80313;SDS011;69628;47.516;18.828;2024-02-28T04:52:41;15.60;;;7.28;;
80313;SDS011;69628;47.516;18.828;2024-02-28T04:53:41;13.70;;;6.55;;
80313;SDS011;69628;47.516;18.828;2024-02-28T04:54:42;18.10;;;6.95;;
80313;SDS011;69628;47.516;18.828;2024-02-28T04:55:42;14.10;;;7.45;;
80313;SDS011;69628;47.516;18.828;2024-02-28T04:56:42;13.20;;;5.95;;
80313;SDS011;69628;47.516;18.828;2024-02-28T04:57:43;11.85;;;6.20;;
80313;SDS011;69628;47.516;18.828;2024-02-28T04:58:43;10.70;;;5.82;;
80313;SDS011;69628;47.516;18.828;2024-02-28T04:59:44;12.98;;;7.45;;
80313;SDS011;69628;47.516;18.828;2024-02-28T05:00:44;21.40;;;8.02;;
80313;SDS011;69628;47.516;18.828;2024-02-28T05:01:44;16.83;;;7.05;;
80313;SDS011;69628;47.516;18.828;2024-02-28T05:02:45;12.80;;;6.63;;
80313;SDS011;69628;47.516;18.828;2024-02-28T05:03:46;12.95;;;6.88;;
80313;SDS011;69628;47.516;18.828;2024-02-28T05:04:46;16.38;;;6.95;;
80313;SDS011;69628;47.516;18.828;2024-02-28T05:05:47;13.02;;;6.13;;
80313;SDS011;69628;47.516;18.828;2024-02-28T05:06:47;14.95;;;7.70;;
80313;SDS011;69628;47.516;18.828;2024-02-28T05:07:47;12.25;;;6.80;;
80313;SDS011;69628;47.516;18.828;2024-02-28T05:08:48;18.10;;;7.55;;
80313;SDS011;69628;47.516;18.828;2024-02-28T05:09:48;16.33;;;7.38;;
80313;SDS011;69628;47.516;18.828;2024-02-28T05:10:49;16.42;;;7.70;;
80313;SDS011;69628;47.516;18.828;2024-02-28T05:11:50;18.02;;;7.55;;
80313;SDS011;69628;47.516;18.828;2024-02-28T05:12:51;10.38;;;5.88;;
80313;SDS011;69628;47.516;18.828;2024-02-28T05:13:51;16.42;;;7.88;;
80313;SDS011;69628;47.516;18.828;2024-02-28T05:14:52;22.25;;;6.53;;
80313;SDS011;69628;47.516;18.828;2024-02-28T05:15:52;19.10;;;6.55;;
80313;SDS011;69628;47.516;18.828;2024-02-28T05:16:52;10.95;;;6.00;;
80313;SDS011;69628;47.516;18.828;2024-02-28T05:17:53;11.73;;;6.47;;
80313;SDS011;69628;47.516;18.828;2024-02-28T05:18:53;15.13;;;6.85;;
80313;SDS011;69628;47.516;18.828;2024-02-28T05:19:54;13.80;;;6.22;;
80313;SDS011;69628;47.516;18.828;2024-02-28T05:20:54;10.82;;;5.88;;
80313;SDS011;69628;47.516;18.828;2024-02-28T05:21:55;16.02;;;7.25;;
80313;SDS011;69628;47.516;18.828;2024-02-28T05:22:55;16.77;;;6.82;;
80313;SDS011;69628;47.516;18.828;2024-02-28T05:23:55;16.85;;;5.95;;
80313;SDS011;69628;47.516;18.828;2024-02-28T05:24:56;15.32;;;6.38;;
80313;SDS011;69628;47.516;18.828;2024-02-28T05:25:56;13.35;;;6.60;;
80313;SDS011;69628;47.516;18.828;2024-02-28T05:26:57;12.63;;;6.57;;
80313;SDS011;69628;47.516;18.828;2024-02-28T05:27:57;13.55;;;5.97;;
80313;SDS011;69628;47.516;18.828;2024-02-28T05:28:58;18.52;;;6.55;;
80313;SDS011;69628;47.516;18.828;2024-02-28T05:29:58;13.18;;;6.75;;
80313;SDS011;69628;47.516;18.828;2024-02-28T05:32:23;13.75;;;6.68;;
80313;SDS011;69628;47.516;18.828;2024-02-28T05:33:24;10.77;;;6.05;;
80313;SDS011;69628;47.516;18.828;2024-02-28T05:34:24;16.90;;;5.38;;
80313;SDS011;69628;47.516;18.828;2024-02-28T05:35:25;16.15;;;6.60;;
80313;SDS011;69628;47.516;18.828;2024-02-28T05:36:26;17.05;;;6.60;;
80313;SDS011;69628;47.516;18.828;2024-02-28T05:37:27;17.27;;;6.60;;
80313;SDS011;69628;47.516;18.828;2024-02-28T05:38:27;11.82;;;5.60;;
80313;SDS011;69628;47.516;18.828;2024-02-28T05:39:28;14.27;;;5.97;;
80313;SDS011;69628;47.516;18.828;2024-02-28T05:40:29;17.45;;;6.05;;
80313;SDS011;69628;47.516;18.828;2024-02-28T05:41:29;11.40;;;6.18;;
80313;SDS011;69628;47.516;18.828;2024-02-28T05:42:30;15.82;;;6.75;;
80313;SDS011;69628;47.516;18.828;2024-02-28T05:43:31;14.60;;;5.35;;
80313;SDS011;69628;47.516;18.828;2024-02-28T05:44:31;10.57;;;5.90;;
80313;SDS011;69628;47.516;18.828;2024-02-28T05:45:31;17.60;;;7.32;;
80313;SDS011;69628;47.516;18.828;2024-02-28T05:46:32;16.33;;;6.70;;
80313;SDS011;69628;47.516;18.828;2024-02-28T05:47:32;15.55;;;7.00;;
80313;SDS011;69628;47.516;18.828;2024-02-28T05:48:33;15.88;;;6.53;;
80313;SDS011;69628;47.516;18.828;2024-02-28T05:49:33;12.90;;;6.90;;
80313;SDS011;69628;47.516;18.828;2024-02-28T05:50:34;14.70;;;7.45;;
80313;SDS011;69628;47.516;18.828;2024-02-28T05:51:34;17.40;;;6.90;;
80313;SDS011;69628;47.516;18.828;2024-02-28T05:52:35;21.10;;;5.93;;
80313;SDS011;69628;47.516;18.828;2024-02-28T05:53:36;15.50;;;6.32;;
80313;SDS011;69628;47.516;18.828;2024-02-28T05:54:38;14.10;;;5.85;;
80313;SDS011;69628;47.516;18.828;2024-02-28T05:55:38;13.07;;;4.97;;
80313;SDS011;69628;47.516;18.828;2024-02-28T05:56:39;10.80;;;5.13;;
80313;SDS011;69628;47.516;18.828;2024-02-28T05:57:39;13.98;;;5.82;;
80313;SDS011;69628;47.516;18.828;2024-02-28T05:58:42;14.50;;;4.93;;
80313;SDS011;69628;47.516;18.828;2024-02-28T05:59:44;13.70;;;5.30;;